CYYB

North Bay Airport

North Bay, , Canada
METAR CYYB 250000Z 22006KT 15SM -SHRA SCT050 OVC090 09/03 A3002 RMK CU4AC4 SLP176
Observed Flight Rules
Apr-25 @ 00:00 UTC (28 minutes ago) Visual Flight Rules
Wind Visibility Clouds Conditions
220° at 6 knots 15 miles
  • Scattered at 5,000' AGL
  • Overcast at 9,000' AGL
  • Light Rain
Temperatures Readings
Current 9°C / 48°F
Dewpoint 3°C / 37°F
Humidity 66%
Altimeter 30.02" Hg
Pressure 1017.6 hPa
Elevation 371
METAR CYYB 250000Z 22006KT 15SM -SHRA SCT050 OVC090 09/03 A3002 RMK CU4AC4 SLP176
Observed Flight Rules
Apr-25 @ 00:00 UTC
(28 minutes ago)
VFR
Wind Visibility
220° at 6 knots 15 miles
Clouds
  • Scattered at 5,000' AGL
  • Overcast at 9,000' AGL
Conditions
  • Light Rain
Temperature Dewpoint
9°C / 48°F 3°C / 37°F
Humidity Altimeter Pressure
66% 30.02" Hg 1017.6 hPa